Time;durP1;ratioP1;P1;durP2;ratioP2;P2;SDS_P1;SDS_P2;PMS_P1;PMS_P2;Temp;Humidity;BMP_temperature;BMP_pressure;BME280_temperature;BME280_humidity;BME280_pressure;Samples;Min_cycle;Max_cycle;Signal;HPM_P1;HPM_P2
2022/11/05 00:09:29;;;;;;;39.15;24.27;;;;;;;;;;4936994;29;20036;-77
2022/11/05 00:17:30;;;;;;;28.92;19.30;;;;;;;;;;4935607;29;20040;-77
2022/11/05 00:19:55;;;;;;;28.55;18.30;;;;;;;;;;4936295;29;20031;-76
2022/11/05 00:25:17;;;;;;;24.88;18.15;;;;;;;;;;4919543;29;20035;-76
2022/11/05 00:27:46;;;;;;;29.40;18.27;;;;;;;;;;4935907;29;20031;-76
2022/11/05 00:30:15;;;;;;;28.45;19.45;;;;;;;;;;4940620;29;20079;-76
2022/11/05 00:32:41;;;;;;;34.78;21.13;;;;;;;;;;4941723;29;20055;-76
2022/11/05 00:35:06;;;;;;;33.05;21.65;;;;;;;;;;4940627;29;20053;-76
2022/11/05 00:37:32;;;;;;;33.83;22.75;;;;;;;;;;4939260;29;20028;-77
2022/11/05 00:39:57;;;;;;;35.88;22.02;;;;;;;;;;4938642;29;20055;-77
2022/11/05 00:45:07;;;;;;;34.83;23.05;;;;;;;;;;4977339;28;20031;-78
2022/11/05 00:50:20;;;;;;;34.20;22.65;;;;;;;;;;4976751;28;20086;-78
2022/11/05 00:52:55;;;;;;;37.30;22.90;;;;;;;;;;4977075;28;20027;-78
2022/11/05 00:55:21;;;;;;;32.08;19.92;;;;;;;;;;4976596;28;20486;-78
2022/11/05 00:57:47;;;;;;;22.75;14.55;;;;;;;;;;4975504;28;20026;-77
2022/11/05 01:00:12;;;;;;;23.98;17.58;;;;;;;;;;4976496;28;20031;-78
2022/11/05 01:02:38;;;;;;;23.05;15.95;;;;;;;;;;4976181;28;20038;-78
2022/11/05 01:05:03;;;;;;;25.50;15.18;;;;;;;;;;4975754;28;20105;-78
2022/11/05 01:07:28;;;;;;;20.30;14.20;;;;;;;;;;4976265;28;20479;-78
2022/11/05 01:09:54;;;;;;;21.33;13.55;;;;;;;;;;4975918;28;20460;-78
2022/11/05 01:12:19;;;;;;;16.35;11.05;;;;;;;;;;4975632;28;20026;-77
2022/11/05 01:14:44;;;;;;;17.30;11.85;;;;;;;;;;4974994;28;20035;-76
2022/11/05 01:17:10;;;;;;;15.27;10.48;;;;;;;;;;4974792;28;20530;-76
2022/11/05 01:19:35;;;;;;;15.90;11.32;;;;;;;;;;4974775;28;20033;-76
2022/11/05 01:22:00;;;;;;;15.38;9.98;;;;;;;;;;4973493;28;20019;-76
2022/11/05 01:24:26;;;;;;;12.05;7.80;;;;;;;;;;4973531;28;20383;-76
2022/11/05 01:26:51;;;;;;;8.52;7.13;;;;;;;;;;4973572;28;20023;-76
2022/11/05 01:29:17;;;;;;;8.88;6.55;;;;;;;;;;4989756;28;20023;-76
2022/11/05 01:31:42;;;;;;;9.20;6.05;;;;;;;;;;4975006;28;20039;-77
2022/11/05 01:34:08;;;;;;;7.93;5.70;;;;;;;;;;4974872;28;20081;-77
2022/11/05 01:36:33;;;;;;;6.00;5.22;;;;;;;;;;4974580;28;20019;-77
2022/11/05 01:39:00;;;;;;;5.63;4.97;;;;;;;;;;4974830;28;20027;-77
2022/11/05 01:41:26;;;;;;;5.55;5.05;;;;;;;;;;4973275;28;20532;-77
2022/11/05 01:43:53;;;;;;;5.90;5.30;;;;;;;;;;4974238;28;20047;-76
2022/11/05 01:46:22;;;;;;;8.77;5.47;;;;;;;;;;4974673;28;20026;-76
2022/11/05 01:48:49;;;;;;;7.68;5.30;;;;;;;;;;4989378;28;20027;-76
2022/11/05 01:51:16;;;;;;;8.15;4.70;;;;;;;;;;4974005;28;20033;-76
2022/11/05 01:53:49;;;;;;;4.50;4.10;;;;;;;;;;4974505;28;20062;-78
2022/11/05 01:56:21;;;;;;;5.97;4.47;;;;;;;;;;4975149;28;20467;-78
2022/11/05 01:58:55;;;;;;;5.32;4.90;;;;;;;;;;4975295;28;20039;-77
2022/11/05 02:01:21;;;;;;;5.05;4.50;;;;;;;;;;4974939;28;20035;-78
2022/11/05 02:03:47;;;;;;;4.82;4.40;;;;;;;;;;4974426;28;20161;-78
2022/11/05 02:06:14;;;;;;;4.85;4.10;;;;;;;;;;4974544;28;20038;-78
2022/11/05 02:09:00;;;;;;;3.78;3.47;;;;;;;;;;4974513;28;20109;-78
2022/11/05 02:11:25;;;;;;;3.72;3.42;;;;;;;;;;4976621;28;20031;-78
2022/11/05 02:13:51;;;;;;;3.83;3.50;;;;;;;;;;4977876;28;20018;-77
2022/11/05 02:16:23;;;;;;;3.90;3.42;;;;;;;;;;4976488;28;20062;-78
2022/11/05 02:18:59;;;;;;;3.78;3.47;;;;;;;;;;4976879;28;20045;-78
2022/11/05 02:21:36;;;;;;;3.92;3.60;;;;;;;;;;4976442;28;20038;-77
2022/11/05 02:24:10;;;;;;;3.60;3.30;;;;;;;;;;4977589;28;20426;-78
2022/11/05 02:27:00;;;;;;;3.83;3.53;;;;;;;;;;4978172;28;20082;-78
2022/11/05 02:29:38;;;;;;;4.03;3.63;;;;;;;;;;4978222;28;20027;-78
2022/11/05 02:32:17;;;;;;;3.35;3.15;;;;;;;;;;4976150;28;20038;-76
2022/11/05 02:35:02;;;;;;;3.55;3.25;;;;;;;;;;4977606;28;20125;-76
2022/11/05 02:37:44;;;;;;;3.67;3.38;;;;;;;;;;4985392;28;20049;-77
2022/11/05 02:40:26;;;;;;;4.00;3.60;;;;;;;;;;4977422;28;20125;-77
2022/11/05 02:42:56;;;;;;;3.95;3.25;;;;;;;;;;4977065;28;20039;-77
2022/11/05 02:45:40;;;;;;;3.45;3.20;;;;;;;;;;4975849;28;20062;-77
2022/11/05 02:48:08;;;;;;;3.38;3.08;;;;;;;;;;4975848;28;20058;-77
2022/11/05 02:50:52;;;;;;;3.35;3.15;;;;;;;;;;4975720;28;20494;-76
2022/11/05 02:53:30;;;;;;;4.13;3.53;;;;;;;;;;4975852;28;20438;-77
2022/11/05 02:56:02;;;;;;;3.22;3.03;;;;;;;;;;4977215;28;20427;-77
2022/11/05 02:58:28;;;;;;;3.38;3.17;;;;;;;;;;4977329;28;20027;-77
2022/11/05 03:00:57;;;;;;;3.17;3.08;;;;;;;;;;4976731;28;20381;-77
2022/11/05 03:03:25;;;;;;;3.42;3.13;;;;;;;;;;4976569;28;20037;-76
2022/11/05 03:05:53;;;;;;;3.15;2.95;;;;;;;;;;4976902;28;20018;-77
2022/11/05 03:08:30;;;;;;;3.42;3.22;;;;;;;;;;4975823;28;20026;-77
2022/11/05 03:11:01;;;;;;;3.20;3.00;;;;;;;;;;4992011;28;20039;-77
2022/11/05 03:13:38;;;;;;;3.75;3.40;;;;;;;;;;4975004;28;20125;-78
2022/11/05 03:16:10;;;;;;;3.42;3.22;;;;;;;;;;4976134;28;20483;-76
2022/11/05 03:18:49;;;;;;;3.22;3.03;;;;;;;;;;4976384;28;20035;-76
2022/11/05 03:21:22;;;;;;;3.10;2.80;;;;;;;;;;4975030;28;20121;-76
2022/11/05 03:23:55;;;;;;;3.42;3.20;;;;;;;;;;4980154;28;20109;-76
2022/11/05 03:26:20;;;;;;;3.00;2.78;;;;;;;;;;4981120;28;20386;-76
2022/11/05 03:28:49;;;;;;;3.55;3.25;;;;;;;;;;4980226;28;20033;-76
2022/11/05 03:31:15;;;;;;;3.08;2.80;;;;;;;;;;4979243;28;20031;-76
2022/11/05 03:33:42;;;;;;;2.95;2.55;;;;;;;;;;4978530;28;20093;-76
2022/11/05 03:36:12;;;;;;;3.47;2.75;;;;;;;;;;4977045;28;20035;-76
2022/11/05 03:38:40;;;;;;;3.58;3.10;;;;;;;;;;4976812;28;20089;-77
2022/11/05 03:41:10;;;;;;;3.08;2.88;;;;;;;;;;4981859;23;20067;-77
2022/11/05 03:43:38;;;;;;;3.83;3.30;;;;;;;;;;5016228;28;20069;-77
2022/11/05 03:46:08;;;;;;;3.40;3.20;;;;;;;;;;5016997;28;20060;-77
2022/11/05 03:48:35;;;;;;;3.58;3.28;;;;;;;;;;5014536;28;20037;-76
2022/11/05 03:51:10;;;;;;;3.28;2.97;;;;;;;;;;5015616;28;20083;-77
2022/11/05 03:53:39;;;;;;;2.88;2.67;;;;;;;;;;5015801;28;20032;-77
2022/11/05 03:56:06;;;;;;;3.30;2.97;;;;;;;;;;5015567;28;20014;-77
2022/11/05 03:58:32;;;;;;;4.35;2.50;;;;;;;;;;5014730;28;20037;-77
2022/11/05 04:01:01;;;;;;;2.58;2.38;;;;;;;;;;5015446;28;20390;-77
2022/11/05 04:03:34;;;;;;;2.97;2.78;;;;;;;;;;5015477;28;20037;-77
2022/11/05 04:14:12;;;;;;;2.30;2.20;;;;;;;;;;5013935;28;20030;-77
2022/11/05 04:24:48;;;;;;;2.55;2.38;;;;;;;;;;5014794;28;20041;-77
2022/11/05 04:27:14;;;;;;;2.40;2.30;;;;;;;;;;5015353;28;20014;-77
2022/11/05 04:32:25;;;;;;;1.95;1.85;;;;;;;;;;5014727;28;20049;-77
2022/11/05 04:34:50;;;;;;;1.85;1.75;;;;;;;;;;5013540;28;20034;-77
2022/11/05 04:37:16;;;;;;;2.13;2.03;;;;;;;;;;5014539;28;20041;-76
2022/11/05 04:39:42;;;;;;;2.80;2.08;;;;;;;;;;5014252;28;20025;-76
2022/11/05 04:42:08;;;;;;;2.05;1.83;;;;;;;;;;5014639;28;20054;-76
2022/11/05 04:44:33;;;;;;;2.20;2.03;;;;;;;;;;5013643;28;20041;-76
2022/11/05 04:46:58;;;;;;;1.95;1.85;;;;;;;;;;5014551;28;20026;-76
2022/11/05 04:49:24;;;;;;;1.92;1.77;;;;;;;;;;5014739;28;20513;-76
2022/11/05 04:51:50;;;;;;;1.90;1.80;;;;;;;;;;5012856;28;20036;-76
2022/11/05 04:54:15;;;;;;;2.90;2.08;;;;;;;;;;5014203;28;20022;-76
2022/11/05 04:56:41;;;;;;;1.98;1.88;;;;;;;;;;5013799;28;20378;-76
2022/11/05 04:59:06;;;;;;;2.40;2.20;;;;;;;;;;5012823;28;20037;-76
2022/11/05 05:01:33;;;;;;;2.45;2.10;;;;;;;;;;5014159;28;20092;-75
2022/11/05 05:03:59;;;;;;;2.60;1.88;;;;;;;;;;5014224;28;20064;-75
2022/11/05 05:06:25;;;;;;;1.98;1.88;;;;;;;;;;5014467;28;20033;-77
2022/11/05 05:08:51;;;;;;;2.08;1.88;;;;;;;;;;5014682;28;20026;-78
2022/11/05 05:11:17;;;;;;;2.10;2.00;;;;;;;;;;5012576;28;20032;-76
2022/11/05 05:13:43;;;;;;;2.55;2.40;;;;;;;;;;5045139;23;21626;-78
2022/11/05 05:16:14;;;;;;;2.45;2.35;;;;;;;;;;5012603;28;20037;-78
2022/11/05 05:18:41;;;;;;;2.42;2.33;;;;;;;;;;5014049;28;20117;-77
2022/11/05 05:23:51;;;;;;;3.03;2.80;;;;;;;;;;5012255;28;20037;-76
2022/11/05 05:26:16;;;;;;;3.22;2.42;;;;;;;;;;5013742;28;20014;-77
2022/11/05 05:28:42;;;;;;;2.65;2.45;;;;;;;;;;5013909;28;20081;-76
2022/11/05 05:31:08;;;;;;;3.10;2.80;;;;;;;;;;4995902;28;20044;-77
2022/11/05 05:33:33;;;;;;;3.28;2.90;;;;;;;;;;5013860;28;20458;-78
2022/11/05 05:35:59;;;;;;;3.05;2.85;;;;;;;;;;5013829;28;20029;-76
2022/11/05 05:38:24;;;;;;;3.70;3.40;;;;;;;;;;5014149;28;20049;-76
2022/11/05 05:40:50;;;;;;;3.85;3.45;;;;;;;;;;5013741;28;20028;-75
2022/11/05 05:43:16;;;;;;;4.05;3.75;;;;;;;;;;5012064;28;20497;-75
2022/11/05 05:45:41;;;;;;;5.05;4.05;;;;;;;;;;5016611;28;20128;-74
2022/11/05 05:48:07;;;;;;;8.35;4.85;;;;;;;;;;5017382;28;20033;-74
2022/11/05 05:50:32;;;;;;;5.10;4.60;;;;;;;;;;5017078;28;20024;-74
2022/11/05 05:53:05;;;;;;;5.10;4.38;;;;;;;;;;5016064;28;20030;-74
2022/11/05 05:55:31;;;;;;;6.90;4.63;;;;;;;;;;4999813;28;20437;-74
2022/11/05 05:57:57;;;;;;;4.28;3.83;;;;;;;;;;5016321;28;20374;-75
2022/11/05 06:00:22;;;;;;;5.78;4.30;;;;;;;;;;5016133;28;20038;-75
2022/11/05 06:02:48;;;;;;;8.35;5.13;;;;;;;;;;5017066;28;20069;-75
2022/11/05 06:05:13;;;;;;;6.38;4.97;;;;;;;;;;5020817;28;20067;-75
2022/11/05 06:07:38;;;;;;;7.70;4.93;;;;;;;;;;5021440;28;20100;-75
2022/11/05 06:10:05;;;;;;;6.63;5.22;;;;;;;;;;5019491;28;20060;-75
2022/11/05 06:12:30;;;;;;;6.28;5.00;;;;;;;;;;5016893;28;20018;-75
2022/11/05 06:14:55;;;;;;;6.10;4.45;;;;;;;;;;5017021;28;20042;-75
2022/11/05 06:17:22;;;;;;;4.80;4.38;;;;;;;;;;5017407;28;20037;-75
2022/11/05 06:19:47;;;;;;;4.93;4.53;;;;;;;;;;5017124;28;20018;-75
2022/11/05 06:22:13;;;;;;;5.18;4.68;;;;;;;;;;5015581;28;20044;-75
2022/11/05 06:24:38;;;;;;;4.97;4.47;;;;;;;;;;5015503;28;20401;-75
2022/11/05 06:27:04;;;;;;;6.95;5.07;;;;;;;;;;5015543;28;20037;-75
2022/11/05 06:29:29;;;;;;;4.40;4.03;;;;;;;;;;5016923;28;20018;-75
2022/11/05 06:31:54;;;;;;;5.53;4.25;;;;;;;;;;5016520;28;20029;-75
2022/11/05 06:34:20;;;;;;;4.65;4.25;;;;;;;;;;5015450;28;20446;-75
2022/11/05 06:36:45;;;;;;;4.95;4.47;;;;;;;;;;5015396;28;20049;-75
2022/11/05 06:39:11;;;;;;;5.07;4.57;;;;;;;;;;5015038;28;20032;-75
2022/11/05 06:41:36;;;;;;;4.85;4.45;;;;;;;;;;5016297;28;20061;-76
2022/11/05 06:44:01;;;;;;;5.13;4.65;;;;;;;;;;5015315;28;20523;-76
2022/11/05 06:46:27;;;;;;;5.40;4.90;;;;;;;;;;5016049;28;20026;-76
2022/11/05 06:48:53;;;;;;;5.30;4.80;;;;;;;;;;5015135;28;20018;-75
2022/11/05 06:51:20;;;;;;;4.75;4.35;;;;;;;;;;5015964;28;20036;-75
2022/11/05 06:53:45;;;;;;;5.20;4.70;;;;;;;;;;4998389;28;20025;-75
2022/11/05 06:56:11;;;;;;;4.53;4.05;;;;;;;;;;5014950;28;20474;-75
2022/11/05 06:58:36;;;;;;;5.00;4.53;;;;;;;;;;5014882;28;20056;-75
2022/11/05 07:01:03;;;;;;;5.82;5.22;;;;;;;;;;5015748;28;20022;-75
2022/11/05 07:03:28;;;;;;;6.88;5.60;;;;;;;;;;5015911;28;20458;-75
2022/11/05 07:05:55;;;;;;;6.45;5.75;;;;;;;;;;5015934;28;20036;-75
2022/11/05 07:08:21;;;;;;;6.70;5.93;;;;;;;;;;5015932;28;20057;-75
2022/11/05 07:10:47;;;;;;;6.03;5.53;;;;;;;;;;5025478;28;20049;-74
2022/11/05 07:13:12;;;;;;;6.97;6.28;;;;;;;;;;5035580;28;20031;-74
2022/11/05 07:15:38;;;;;;;5.97;5.47;;;;;;;;;;5034489;28;20055;-77
2022/11/05 07:18:04;;;;;;;6.43;5.75;;;;;;;;;;5034365;28;20493;-76
2022/11/05 07:20:29;;;;;;;5.20;4.78;;;;;;;;;;5033895;28;20026;-76
2022/11/05 07:23:05;;;;;;;5.32;4.93;;;;;;;;;;5035642;28;20029;-74
2022/11/05 07:25:31;;;;;;;6.60;6.00;;;;;;;;;;5035379;28;20038;-76
2022/11/05 07:27:57;;;;;;;6.78;5.70;;;;;;;;;;5034247;28;20432;-75
2022/11/05 07:30:22;;;;;;;7.82;5.45;;;;;;;;;;5033732;28;20370;-74
2022/11/05 07:32:47;;;;;;;7.05;6.35;;;;;;;;;;5034926;28;20158;-74
2022/11/05 07:35:13;;;;;;;5.68;5.13;;;;;;;;;;5034754;28;20040;-77
2022/11/05 07:37:43;;;;;;;5.90;5.40;;;;;;;;;;5033543;28;20056;-75
2022/11/05 07:40:09;;;;;;;5.30;4.90;;;;;;;;;;5033416;28;20492;-75
2022/11/05 07:42:34;;;;;;;5.97;5.38;;;;;;;;;;5034382;28;20044;-75
2022/11/05 07:45:00;;;;;;;5.93;5.50;;;;;;;;;;5033821;28;20193;-76
2022/11/05 07:47:25;;;;;;;7.35;6.65;;;;;;;;;;5034178;28;20437;-76
2022/11/05 07:49:50;;;;;;;6.07;5.57;;;;;;;;;;5034015;28;20036;-77
2022/11/05 07:52:16;;;;;;;4.88;4.50;;;;;;;;;;5034877;28;20025;-77
2022/11/05 07:54:41;;;;;;;7.18;6.47;;;;;;;;;;5034159;28;20084;-76
2022/11/05 07:57:07;;;;;;;6.68;6.05;;;;;;;;;;5034809;28;20044;-76
2022/11/05 07:59:32;;;;;;;6.00;5.50;;;;;;;;;;5034044;28;20479;-76
2022/11/05 08:01:58;;;;;;;5.90;5.40;;;;;;;;;;5034466;28;20036;-77
2022/11/05 08:04:23;;;;;;;6.35;5.82;;;;;;;;;;5034591;28;20458;-76
2022/11/05 08:06:48;;;;;;;6.88;6.28;;;;;;;;;;5033402;28;20036;-76
2022/11/05 08:09:14;;;;;;;6.13;5.63;;;;;;;;;;5032866;28;20087;-76
2022/11/05 08:11:39;;;;;;;7.28;6.63;;;;;;;;;;5033331;28;20029;-76
2022/11/05 08:14:04;;;;;;;7.43;6.72;;;;;;;;;;5032906;28;20048;-76
2022/11/05 08:16:30;;;;;;;7.22;6.53;;;;;;;;;;5033165;28;20562;-76
2022/11/05 08:18:55;;;;;;;7.00;6.43;;;;;;;;;;5032879;28;20033;-76
2022/11/05 08:21:21;;;;;;;6.75;6.25;;;;;;;;;;5033305;28;20017;-76
2022/11/05 08:23:46;;;;;;;6.63;5.95;;;;;;;;;;5031822;28;20040;-76
2022/11/05 08:26:11;;;;;;;6.55;6.05;;;;;;;;;;5032683;28;20025;-76
2022/11/05 08:28:37;;;;;;;6.35;5.72;;;;;;;;;;5031553;28;20048;-76
2022/11/05 08:31:02;;;;;;;6.32;5.82;;;;;;;;;;5015187;28;20136;-76
2022/11/05 08:33:30;;;;;;;5.00;4.60;;;;;;;;;;5032897;28;20051;-76
2022/11/05 08:35:55;;;;;;;5.82;5.32;;;;;;;;;;5032863;28;20014;-76
2022/11/05 08:38:21;;;;;;;5.53;5.13;;;;;;;;;;5031709;28;20055;-77
2022/11/05 08:40:52;;;;;;;11.52;7.88;;;;;;;;;;5032539;28;20059;-77
2022/11/05 08:43:18;;;;;;;11.27;7.47;;;;;;;;;;5032712;28;20137;-76
2022/11/05 08:45:43;;;;;;;5.95;5.38;;;;;;;;;;5031483;28;20116;-76
2022/11/05 08:48:10;;;;;;;4.55;4.25;;;;;;;;;;5032345;28;20029;-77
2022/11/05 08:50:36;;;;;;;5.63;5.13;;;;;;;;;;5032707;28;20021;-77
2022/11/05 08:53:01;;;;;;;5.75;5.15;;;;;;;;;;5032639;28;20273;-77
2022/11/05 08:55:26;;;;;;;6.05;5.57;;;;;;;;;;5031520;28;20377;-77
2022/11/05 08:57:59;;;;;;;6.28;5.75;;;;;;;;;;5032272;28;20079;-78
2022/11/05 09:00:25;;;;;;;15.57;11.90;;;;;;;;;;5032373;28;20412;-78
2022/11/05 09:02:51;;;;;;;16.10;12.05;;;;;;;;;;5032502;28;20065;-77
2022/11/05 09:05:16;;;;;;;8.57;6.88;;;;;;;;;;5031174;28;20032;-77
2022/11/05 09:07:42;;;;;;;6.80;6.20;;;;;;;;;;5031238;28;20044;-78
2022/11/05 09:10:07;;;;;;;5.43;5.03;;;;;;;;;;5032465;28;20104;-77
2022/11/05 09:12:33;;;;;;;5.60;5.10;;;;;;;;;;5033794;28;20064;-77
2022/11/05 09:14:58;;;;;;;5.20;4.80;;;;;;;;;;5037399;28;20107;-77
2022/11/05 09:17:23;;;;;;;5.22;4.82;;;;;;;;;;5036600;28;20068;-77
2022/11/05 09:19:49;;;;;;;6.63;5.93;;;;;;;;;;5036293;28;20040;-77
2022/11/05 09:22:14;;;;;;;5.07;4.65;;;;;;;;;;5036660;28;20064;-77
2022/11/05 09:24:41;;;;;;;4.38;4.03;;;;;;;;;;5036025;28;20035;-77
2022/11/05 09:27:09;;;;;;;4.57;4.28;;;;;;;;;;5036959;28;20473;-78
2022/11/05 09:29:34;;;;;;;4.40;4.00;;;;;;;;;;5036667;28;20029;-77
2022/11/05 09:32:00;;;;;;;4.38;4.00;;;;;;;;;;5036606;28;20017;-78
2022/11/05 09:34:25;;;;;;;4.18;3.88;;;;;;;;;;5035120;28;20025;-78
2022/11/05 09:36:51;;;;;;;4.20;3.90;;;;;;;;;;5035722;28;20013;-78
2022/11/05 09:39:16;;;;;;;4.28;3.83;;;;;;;;;;5035997;28;20137;-78
2022/11/05 09:41:43;;;;;;;4.63;4.32;;;;;;;;;;5036015;28;20025;-77
2022/11/05 09:44:11;;;;;;;7.05;5.07;;;;;;;;;;5036181;28;20021;-78
2022/11/05 09:46:42;;;;;;;4.40;3.90;;;;;;;;;;5036005;28;20018;-77
2022/11/05 09:49:15;;;;;;;4.25;3.95;;;;;;;;;;5035846;28;20026;-77
2022/11/05 09:51:40;;;;;;;5.22;4.57;;;;;;;;;;5034793;28;20047;-77
2022/11/05 09:54:05;;;;;;;4.32;3.92;;;;;;;;;;5035593;28;20473;-79
2022/11/05 09:56:33;;;;;;;4.72;4.30;;;;;;;;;;5034518;28;20531;-78
2022/11/05 09:59:01;;;;;;;4.47;4.10;;;;;;;;;;5027965;28;20033;-79
2022/11/05 10:01:34;;;;;;;4.90;4.50;;;;;;;;;;5032147;28;20034;-79
2022/11/05 10:04:01;;;;;;;6.32;4.95;;;;;;;;;;5029546;28;20044;-79
2022/11/05 10:06:27;;;;;;;5.30;4.47;;;;;;;;;;5030395;28;20024;-79
2022/11/05 10:09:04;;;;;;;5.57;4.32;;;;;;;;;;5030985;28;20033;-79
2022/11/05 10:11:55;;;;;;;5.63;5.05;;;;;;;;;;5030133;28;20116;-79
2022/11/05 10:14:30;;;;;;;4.22;3.80;;;;;;;;;;4993101;28;20130;-78
2022/11/05 10:17:05;;;;;;;3.83;3.38;;;;;;;;;;5030216;28;20096;-79
2022/11/05 10:19:51;;;;;;;3.53;3.33;;;;;;;;;;5028906;28;20061;-79
2022/11/05 10:22:17;;;;;;;6.05;4.18;;;;;;;;;;5027588;28;20042;-79
2022/11/05 10:24:45;;;;;;;4.70;3.53;;;;;;;;;;5028795;28;20032;-79
2022/11/05 10:27:20;;;;;;;4.22;3.83;;;;;;;;;;5028753;28;20473;-79
2022/11/05 10:29:46;;;;;;;4.03;3.67;;;;;;;;;;5027017;28;20118;-79
2022/11/05 10:32:14;;;;;;;4.53;3.42;;;;;;;;;;5027790;28;20106;-79
2022/11/05 10:34:40;;;;;;;4.13;3.83;;;;;;;;;;5028066;28;20029;-76
2022/11/05 10:37:05;;;;;;;2.70;2.50;;;;;;;;;;5029650;28;20022;-76
2022/11/05 10:39:32;;;;;;;3.35;3.05;;;;;;;;;;5030661;28;20037;-77
2022/11/05 10:42:06;;;;;;;6.50;3.80;;;;;;;;;;5030187;28;20021;-76
2022/11/05 10:44:32;;;;;;;4.15;3.67;;;;;;;;;;5027525;28;20128;-77
2022/11/05 10:47:10;;;;;;;3.83;3.35;;;;;;;;;;5010738;28;20116;-77
2022/11/05 10:49:39;;;;;;;3.08;2.88;;;;;;;;;;5030057;28;20556;-77
2022/11/05 10:52:13;;;;;;;3.10;2.90;;;;;;;;;;5029927;28;20021;-77
2022/11/05 10:54:39;;;;;;;2.95;2.70;;;;;;;;;;5030873;28;20025;-77
2022/11/05 10:57:24;;;;;;;2.88;2.67;;;;;;;;;;5031008;28;20563;-77
2022/11/05 10:59:49;;;;;;;2.60;2.40;;;;;;;;;;5028989;28;20039;-77
2022/11/05 11:02:20;;;;;;;1.90;1.80;;;;;;;;;;5029871;28;20096;-77
2022/11/05 11:04:50;;;;;;;1.92;1.83;;;;;;;;;;5030703;28;20520;-77
2022/11/05 11:07:20;;;;;;;2.55;2.42;;;;;;;;;;5030716;28;20116;-77
2022/11/05 11:09:47;;;;;;;2.10;2.00;;;;;;;;;;5029415;28;20017;-77
2022/11/05 11:12:21;;;;;;;2.60;2.40;;;;;;;;;;5034460;28;20048;-77
2022/11/05 11:14:58;;;;;;;2.90;2.70;;;;;;;;;;5034053;28;20067;-77
2022/11/05 11:17:25;;;;;;;3.38;3.17;;;;;;;;;;5032913;28;20036;-78
2022/11/05 11:19:52;;;;;;;4.47;3.38;;;;;;;;;;5034293;28;20017;-77
2022/11/05 11:22:19;;;;;;;3.20;2.00;;;;;;;;;;5034241;28;20037;-77
2022/11/05 11:24:48;;;;;;;2.58;2.38;;;;;;;;;;5034150;28;20414;-76
2022/11/05 11:27:16;;;;;;;2.50;2.40;;;;;;;;;;5033754;28;20108;-76
2022/11/05 11:29:43;;;;;;;3.15;2.92;;;;;;;;;;5031970;23;20061;-76
2022/11/05 11:32:13;;;;;;;5.10;4.32;;;;;;;;;;5012906;28;20038;-76
2022/11/05 11:34:40;;;;;;;7.15;5.10;;;;;;;;;;5015169;28;20075;-76
2022/11/05 11:37:08;;;;;;;6.95;4.90;;;;;;;;;;5015406;28;20104;-76
2022/11/05 11:39:34;;;;;;;8.57;6.15;;;;;;;;;;5013886;28;20049;-76
2022/11/05 11:42:02;;;;;;;10.63;6.10;;;;;;;;;;5013172;28;20026;-76
2022/11/05 11:44:29;;;;;;;9.75;6.18;;;;;;;;;;5012990;28;20509;-76
2022/11/05 11:46:56;;;;;;;12.93;7.82;;;;;;;;;;5013037;28;20064;-75
2022/11/05 11:49:32;;;;;;;12.35;7.07;;;;;;;;;;5012991;28;20033;-76
2022/11/05 11:52:09;;;;;;;4.05;3.65;;;;;;;;;;5011773;28;20104;-76
2022/11/05 11:54:34;;;;;;;3.47;3.22;;;;;;;;;;5012997;28;20033;-76
2022/11/05 11:57:00;;;;;;;4.07;3.80;;;;;;;;;;5015346;28;20024;-76
2022/11/05 11:59:27;;;;;;;3.45;3.25;;;;;;;;;;5020037;28;20475;-76
2022/11/05 12:02:03;;;;;;;2.88;2.55;;;;;;;;;;5018260;28;20033;-76
2022/11/05 12:04:31;;;;;;;2.40;2.30;;;;;;;;;;5016713;28;20088;-76
2022/11/05 12:06:59;;;;;;;3.65;2.22;;;;;;;;;;5015562;28;20034;-76
2022/11/05 12:09:44;;;;;;;2.88;2.60;;;;;;;;;;5014856;28;20077;-76
2022/11/05 12:12:09;;;;;;;2.25;2.15;;;;;;;;;;5013617;28;20141;-76
2022/11/05 12:14:34;;;;;;;2.83;2.63;;;;;;;;;;5014657;28;20482;-76
2022/11/05 12:17:30;;;;;;;2.75;2.55;;;;;;;;;;5013238;28;20033;-77
2022/11/05 12:20:15;;;;;;;2.53;2.42;;;;;;;;;;5001511;28;20038;-80
2022/11/05 12:23:00;;;;;;;3.88;3.53;;;;;;;;;;5014668;28;20393;-79
2022/11/05 12:25:26;;;;;;;5.63;4.40;;;;;;;;;;5014569;28;20032;-79
2022/11/05 12:28:12;;;;;;;172.35;87.70;;;;;;;;;;5014600;28;20377;-79
2022/11/05 12:31:00;;;;;;;11.48;9.57;;;;;;;;;;4974296;28;20379;-79
2022/11/05 12:33:30;;;;;;;11.50;8.77;;;;;;;;;;4986277;28;20042;-76
2022/11/05 12:36:01;;;;;;;2.70;2.50;;;;;;;;;;5013780;28;20026;-76
2022/11/05 12:38:29;;;;;;;7.07;6.38;;;;;;;;;;5014373;28;20524;-76
2022/11/05 12:40:54;;;;;;;4.53;3.80;;;;;;;;;;5012750;28;20496;-76
2022/11/05 12:43:20;;;;;;;3.75;2.60;;;;;;;;;;5012719;28;20026;-79
2022/11/05 12:45:45;;;;;;;9.55;8.05;;;;;;;;;;5014241;28;20018;-80
2022/11/05 12:48:17;;;;;;;4.70;4.32;;;;;;;;;;5012707;28;20534;-79
2022/11/05 12:50:42;;;;;;;3.38;3.17;;;;;;;;;;5012659;28;20041;-79
2022/11/05 12:53:10;;;;;;;2.67;2.47;;;;;;;;;;5012445;28;20466;-79
2022/11/05 12:55:41;;;;;;;3.00;2.70;;;;;;;;;;5013703;28;20038;-80
2022/11/05 12:58:11;;;;;;;2.88;2.67;;;;;;;;;;5014108;28;20030;-80
2022/11/05 13:00:40;;;;;;;6.45;5.85;;;;;;;;;;5014105;28;20460;-79
2022/11/05 13:03:08;;;;;;;5.22;3.13;;;;;;;;;;5014062;28;20033;-79
2022/11/05 13:05:34;;;;;;;7.50;5.43;;;;;;;;;;5014334;28;20397;-79
2022/11/05 13:08:06;;;;;;;3.72;3.42;;;;;;;;;;5012904;28;20089;-79
2022/11/05 13:10:34;;;;;;;3.58;3.38;;;;;;;;;;5012605;28;20026;-79
2022/11/05 13:13:08;;;;;;;2.85;2.65;;;;;;;;;;5013741;28;20022;-79
2022/11/05 13:15:38;;;;;;;3.88;3.58;;;;;;;;;;5014228;28;20117;-79
2022/11/05 13:18:04;;;;;;;;;;;;;;;;;;5012929;28;20042;-79
2022/11/05 13:20:34;;;;;;;4.53;4.22;;;;;;;;;;5014196;28;19959;-79
2022/11/05 13:23:05;;;;;;;22.98;19.65;;;;;;;;;;5013860;28;20033;-79
2022/11/05 13:25:33;;;;;;;29.88;26.10;;;;;;;;;;5012343;28;20532;-79
2022/11/05 13:28:16;;;;;;;4.78;4.38;;;;;;;;;;5013634;28;20018;-79
2022/11/05 13:30:45;;;;;;;8.70;8.07;;;;;;;;;;5013742;28;20125;-79
2022/11/05 13:33:16;;;;;;;4.22;4.00;;;;;;;;;;5013858;28;20029;-79
2022/11/05 13:35:44;;;;;;;3.22;3.03;;;;;;;;;;5013573;28;20091;-79
2022/11/05 13:41:10;;;;;;;3.35;3.10;;;;;;;;;;5013778;28;20362;-79
2022/11/05 13:44:02;;;;;;;3.55;3.25;;;;;;;;;;5013615;28;20034;-79
2022/11/05 13:46:36;;;;;;;3.45;3.15;;;;;;;;;;5010411;28;20486;-79
2022/11/05 13:49:05;;;;;;;5.28;4.03;;;;;;;;;;5012123;28;20033;-79
2022/11/05 13:51:38;;;;;;;3.25;2.80;;;;;;;;;;5013663;28;20030;-79
2022/11/05 13:54:09;;;;;;;3.15;2.95;;;;;;;;;;5012148;28;20030;-79
2022/11/05 13:56:34;;;;;;;4.18;3.88;;;;;;;;;;5012181;28;20041;-76
2022/11/05 13:59:29;;;;;;;4.10;3.80;;;;;;;;;;5012169;28;20021;-76
2022/11/05 14:01:58;;;;;;;5.20;4.18;;;;;;;;;;4960677;28;20043;-76
2022/11/05 14:04:32;;;;;;;4.32;3.92;;;;;;;;;;5013505;28;20038;-76
2022/11/05 14:07:05;;;;;;;8.98;6.07;;;;;;;;;;5015838;28;20048;-76
2022/11/05 14:09:33;;;;;;;4.55;4.25;;;;;;;;;;5016809;28;20034;-76
2022/11/05 14:11:59;;;;;;;4.40;4.00;;;;;;;;;;5015485;28;20026;-76
2022/11/05 14:14:26;;;;;;;4.70;4.30;;;;;;;;;;5016723;28;20144;-75
2022/11/05 14:17:11;;;;;;;5.10;4.70;;;;;;;;;;5016721;28;20025;-76
2022/11/05 14:19:57;;;;;;;4.72;4.43;;;;;;;;;;5016854;28;20555;-76
2022/11/05 14:22:31;;;;;;;5.13;4.68;;;;;;;;;;5015183;28;20030;-76
2022/11/05 14:25:15;;;;;;;7.00;6.32;;;;;;;;;;5015215;28;20029;-75
2022/11/05 14:27:42;;;;;;;7.97;7.20;;;;;;;;;;5016734;28;20030;-76
2022/11/05 14:30:26;;;;;;;5.95;5.45;;;;;;;;;;5014201;28;20549;-77
2022/11/05 14:33:01;;;;;;;4.93;4.50;;;;;;;;;;5016890;28;20029;-76
2022/11/05 14:35:36;;;;;;;6.00;4.50;;;;;;;;;;5016265;28;20474;-76
2022/11/05 14:38:03;;;;;;;4.78;4.38;;;;;;;;;;5015715;28;20040;-79
2022/11/05 14:40:32;;;;;;;4.68;4.35;;;;;;;;;;5014988;28;20019;-79
2022/11/05 14:43:03;;;;;;;4.20;3.90;;;;;;;;;;5015247;28;20111;-79
2022/11/05 14:45:31;;;;;;;5.00;4.43;;;;;;;;;;5015267;28;20029;-80
2022/11/05 14:48:04;;;;;;;4.55;4.15;;;;;;;;;;5016107;28;20022;-80
2022/11/05 14:50:32;;;;;;;7.25;6.55;;;;;;;;;;5016972;28;20029;-80
2022/11/05 14:53:03;;;;;;;4.85;4.40;;;;;;;;;;5021012;28;20032;-80
2022/11/05 14:55:33;;;;;;;4.82;4.28;;;;;;;;;;5020778;28;20029;-79
2022/11/05 14:58:00;;;;;;;4.53;4.13;;;;;;;;;;5018718;28;20038;-79
2022/11/05 15:00:28;;;;;;;4.32;4.03;;;;;;;;;;5015807;28;20029;-79
2022/11/05 15:03:01;;;;;;;4.57;4.18;;;;;;;;;;5017098;28;20080;-80
2022/11/05 15:05:45;;;;;;;19.48;17.75;;;;;;;;;;5016790;28;20033;-79
2022/11/05 15:08:31;;;;;;;7.65;6.88;;;;;;;;;;5016356;28;20026;-79
2022/11/05 15:11:02;;;;;;;5.45;4.97;;;;;;;;;;5015060;28;20029;-79
2022/11/05 15:13:33;;;;;;;5.47;4.88;;;;;;;;;;5014888;28;20034;-80
2022/11/05 15:15:58;;;;;;;;;;;;;;;;;;5014896;28;20079;-79
2022/11/05 15:18:28;;;;;;;7.03;4.78;;;;;;;;;;5014494;28;19909;-79
2022/11/05 15:20:55;;;;;;;5.63;5.13;;;;;;;;;;5015862;28;20117;-79
2022/11/05 15:23:23;;;;;;;5.75;5.15;;;;;;;;;;5015397;28;20083;-77
2022/11/05 15:25:57;;;;;;;5.43;4.63;;;;;;;;;;5017132;28;20033;-77
2022/11/05 15:28:28;;;;;;;5.82;5.30;;;;;;;;;;5014630;28;20034;-77
2022/11/05 15:30:53;;;;;;;;;;;;;;;;;;5016579;28;20151;-77
2022/11/05 15:33:20;;;;;;;5.83;5.07;;;;;;;;;;5015497;28;19947;-77
2022/11/05 15:35:45;;;;;;;5.53;5.03;;;;;;;;;;5013497;28;20041;-77
2022/11/05 15:38:24;;;;;;;6.57;5.00;;;;;;;;;;5012734;28;20367;-77